createdAt,value
2023-02-02T00:04:33.494Z,4.24
2023-02-02T00:09:33.463Z,4.01
2023-02-02T00:14:33.494Z,4.1
2023-02-02T00:19:33.468Z,4.13
2023-02-02T00:24:33.498Z,3.92
2023-02-02T00:29:33.470Z,3.53
2023-02-02T00:34:33.524Z,4.5
2023-02-02T00:39:33.475Z,4.52
2023-02-02T00:44:33.511Z,3.69
2023-02-02T00:49:33.494Z,3.64
2023-02-02T00:54:33.517Z,3.56
2023-02-02T00:59:33.514Z,3.49
2023-02-02T01:04:33.489Z,3.47
2023-02-02T01:09:33.482Z,3.28
2023-02-02T01:14:33.489Z,3.11
2023-02-02T01:19:33.487Z,2.88
2023-02-02T01:24:33.483Z,2.79
2023-02-02T01:29:33.520Z,2.68
2023-02-02T01:34:33.533Z,2.55
2023-02-02T01:39:34.336Z,2.61
2023-02-02T01:44:33.497Z,2.48
2023-02-02T01:49:33.500Z,2.54
2023-02-02T01:54:33.537Z,2.71
2023-02-02T01:59:33.501Z,2.89
2023-02-02T02:04:33.505Z,2.8
2023-02-02T02:09:33.503Z,2.84
2023-02-02T02:14:33.537Z,2.76
2023-02-02T02:19:33.534Z,2.68
2023-02-02T02:24:33.538Z,2.58
2023-02-02T02:29:33.547Z,2.41
2023-02-02T02:34:33.513Z,2.37
2023-02-02T02:39:33.510Z,2.42
2023-02-02T02:44:33.562Z,2.19
2023-02-02T02:49:33.551Z,2.25
2023-02-02T02:54:33.579Z,2.2
2023-02-02T02:59:33.567Z,2.14
2023-02-02T03:04:33.524Z,2.1
2023-02-02T03:09:33.525Z,1.96
2023-02-02T03:14:33.536Z,2.04
2023-02-02T03:19:33.522Z,2.01
2023-02-02T03:24:33.560Z,2.15
2023-02-02T03:29:33.557Z,1.99
2023-02-02T03:34:33.520Z,2.07
2023-02-02T03:39:33.537Z,1.99
2023-02-02T03:44:33.533Z,1.92
2023-02-02T03:49:33.532Z,1.93
2023-02-02T03:54:33.544Z,2.04
2023-02-02T03:59:33.577Z,1.97
2023-02-02T04:04:33.573Z,1.9
2023-02-02T04:09:33.587Z,1.81
2023-02-02T04:14:33.597Z,1.58
2023-02-02T04:19:33.545Z,1.56
2023-02-02T04:24:33.537Z,1.57
2023-02-02T04:29:33.540Z,1.64
2023-02-02T04:34:33.548Z,1.65
2023-02-02T04:39:33.565Z,1.83
2023-02-02T04:44:33.593Z,1.77
2023-02-02T04:49:33.586Z,1.89
2023-02-02T04:54:33.594Z,1.67
2023-02-02T04:59:33.562Z,2.07
2023-02-02T05:04:33.617Z,2.77
2023-02-02T05:09:33.596Z,4.16
2023-02-02T05:14:33.596Z,4.49
2023-02-02T05:19:33.606Z,3.48
2023-02-02T05:24:33.569Z,2.64
2023-02-02T05:29:33.564Z,2.75
2023-02-02T05:34:33.571Z,2.1
2023-02-02T05:39:33.573Z,2.19
2023-02-02T05:44:33.588Z,2.15
2023-02-02T05:49:33.573Z,2.27
2023-02-02T05:54:33.579Z,2.23
2023-02-02T05:59:33.584Z,2.72
2023-02-02T06:04:33.585Z,2.62
2023-02-02T06:09:33.616Z,2.41
2023-02-02T06:14:33.615Z,2.35
2023-02-02T06:19:33.588Z,2.53
2023-02-02T06:24:33.593Z,2.78
2023-02-02T06:29:33.589Z,3.34
2023-02-02T06:34:33.600Z,4.87
2023-02-02T06:39:33.633Z,5.89
2023-02-02T06:44:33.587Z,5.08
2023-02-02T06:49:33.607Z,5.42
2023-02-02T06:54:33.599Z,5.12
2023-02-02T06:59:33.629Z,4.54
2023-02-02T07:04:33.629Z,3.97
2023-02-02T07:09:33.617Z,4.25
2023-02-02T07:14:33.609Z,3.68
2023-02-02T07:19:33.619Z,3.27
2023-02-02T07:24:33.609Z,3.21
2023-02-02T07:29:33.609Z,3.15
2023-02-02T07:34:33.638Z,3.11
2023-02-02T07:39:33.613Z,3.08
2023-02-02T07:44:33.608Z,3.09
2023-02-02T07:49:33.618Z,3.28
2023-02-02T07:54:33.623Z,3.21
2023-02-02T07:59:33.624Z,3.15
2023-02-02T08:04:33.663Z,3.31
2023-02-02T08:09:33.677Z,3.18
2023-02-02T08:14:33.669Z,3.12
2023-02-02T08:19:33.664Z,3.12
2023-02-02T08:24:33.627Z,3.06
2023-02-02T08:29:33.666Z,3.45
2023-02-02T08:34:33.660Z,3.64
2023-02-02T08:39:33.643Z,3.2
2023-02-02T08:44:40.016Z,3.03
2023-02-02T08:49:33.645Z,3.07
2023-02-02T08:54:33.668Z,3.07
2023-02-02T08:59:33.675Z,3.18
2023-02-02T09:04:33.646Z,3.15
2023-02-02T09:09:33.673Z,3.05
2023-02-02T09:14:33.702Z,3.53
2023-02-02T09:19:33.647Z,2.97
2023-02-02T09:24:33.654Z,3.01
2023-02-02T09:29:33.660Z,3.04
2023-02-02T09:34:33.650Z,2.6
2023-02-02T09:39:33.670Z,2.71
2023-02-02T09:44:33.649Z,3.46
2023-02-02T09:49:33.692Z,2.99
2023-02-02T09:54:33.708Z,2.97
2023-02-02T09:59:33.688Z,4.38
2023-02-02T10:04:33.694Z,10.15
2023-02-02T10:09:33.709Z,3.51
2023-02-02T10:14:33.721Z,3.37
2023-02-02T10:19:33.673Z,3.46
2023-02-02T10:24:33.679Z,3.33
2023-02-02T10:29:47.950Z,3.24
2023-02-02T10:34:33.705Z,4.24
2023-02-02T10:39:33.718Z,4.54
2023-02-02T10:44:33.685Z,5.17
2023-02-02T10:49:33.670Z,5.21
2023-02-02T10:54:38.104Z,3.87
2023-02-02T10:59:33.718Z,4.45
2023-02-02T11:04:33.686Z,4
2023-02-02T11:09:33.723Z,3.94
2023-02-02T11:14:37.142Z,6.21
2023-02-02T11:19:33.715Z,6.81
2023-02-02T11:24:33.729Z,5.01
2023-02-02T11:29:33.727Z,5.39
2023-02-02T11:34:33.698Z,6.31
2023-02-02T11:39:33.750Z,5.38
2023-02-02T11:44:33.728Z,6.07
2023-02-02T11:49:33.711Z,4.75
2023-02-02T11:54:33.768Z,4.07
2023-02-02T11:59:33.737Z,3.41
2023-02-02T12:04:33.798Z,3.2
2023-02-02T12:09:33.724Z,2.83
2023-02-02T12:14:33.713Z,2.84
2023-02-02T12:19:33.704Z,3.24
2023-02-02T12:24:33.706Z,3.73
2023-02-02T12:29:33.716Z,3.12
2023-02-02T12:34:33.726Z,2.97
2023-02-02T12:39:33.723Z,4.31
2023-02-02T12:44:33.734Z,4.24
2023-02-02T12:49:33.751Z,3.77
2023-02-02T12:54:44.354Z,3.04
2023-02-02T12:59:33.724Z,3.1
2023-02-02T13:09:33.728Z,4.04
2023-02-02T13:14:33.728Z,3.98
2023-02-02T13:19:33.730Z,3.66
2023-02-02T13:29:33.732Z,3.34
2023-02-02T13:34:33.739Z,3.5
2023-02-02T13:39:33.736Z,9.45
2023-02-02T13:44:33.772Z,7.05
2023-02-02T13:49:33.779Z,5.4
2023-02-02T13:54:33.779Z,5.82
2023-02-02T13:59:33.753Z,6.7
2023-02-02T14:04:33.773Z,5.26
2023-02-02T14:09:33.747Z,6.17
2023-02-02T14:14:33.780Z,5.75
2023-02-02T14:19:33.757Z,5.68
2023-02-02T14:24:33.747Z,7.05
2023-02-02T14:29:33.769Z,11.11
2023-02-02T14:34:33.798Z,6.04
2023-02-02T14:39:33.754Z,6.43
2023-02-02T14:44:33.789Z,4.9
2023-02-02T14:49:33.787Z,5.55
2023-02-02T14:54:33.762Z,5.84
2023-02-02T14:59:33.794Z,5.88
2023-02-02T15:04:33.769Z,5.64
2023-02-02T15:09:33.810Z,6.21
2023-02-02T15:14:33.769Z,5.79
2023-02-02T15:19:33.811Z,6.49
2023-02-02T15:24:33.767Z,5.92
2023-02-02T15:29:33.770Z,5.96
2023-02-02T15:34:33.781Z,6.78
2023-02-02T15:39:33.817Z,12.03
2023-02-02T15:44:33.776Z,10.19
2023-02-02T15:49:35.270Z,8.23
2023-02-02T15:54:33.800Z,7.67
2023-02-02T15:59:33.806Z,7.78
2023-02-02T16:04:33.845Z,7.69
2023-02-02T16:09:33.817Z,7.93
2023-02-02T16:14:33.822Z,6.88
2023-02-02T16:19:33.793Z,6.86
2023-02-02T16:24:33.842Z,6.88
2023-02-02T16:29:33.796Z,8.45
2023-02-02T16:34:33.827Z,8.2
2023-02-02T16:39:33.832Z,7.5
2023-02-02T16:44:33.857Z,6.76
2023-02-02T16:49:33.804Z,6.82
2023-02-02T16:54:33.806Z,7.45
2023-02-02T16:59:33.852Z,7.94
2023-02-02T17:04:33.818Z,8.67
2023-02-02T17:09:35.451Z,9.63
2023-02-02T17:14:33.839Z,10.64
2023-02-02T17:19:33.851Z,10.73
2023-02-02T17:24:33.838Z,10.37
2023-02-02T17:29:33.811Z,7.91
2023-02-02T17:34:33.848Z,8.11
2023-02-02T17:39:33.849Z,7.02
2023-02-02T17:44:33.846Z,8.82
2023-02-02T17:49:33.848Z,11.17
2023-02-02T17:54:33.831Z,11.4
2023-02-02T17:59:33.828Z,13.17
2023-02-02T18:04:33.818Z,18.06
2023-02-02T18:09:33.887Z,15.75
2023-02-02T18:14:33.859Z,10.01
2023-02-02T18:19:33.829Z,7.23
2023-02-02T18:24:33.832Z,8.69
2023-02-02T18:29:33.820Z,8.42
2023-02-02T18:34:33.865Z,5.69
2023-02-02T18:39:33.871Z,6.32
2023-02-02T18:44:33.885Z,9.96
2023-02-02T18:49:33.872Z,5.74
2023-02-02T18:54:33.867Z,6.73
2023-02-02T18:59:33.870Z,7.56
2023-02-02T19:04:33.833Z,8.98
2023-02-02T19:09:33.860Z,11.3
2023-02-02T19:14:33.880Z,9.34
2023-02-02T19:19:33.879Z,7.33
2023-02-02T19:24:33.846Z,6.94
2023-02-02T19:29:33.866Z,7.26
2023-02-02T19:34:33.869Z,8.13
2023-02-02T19:39:33.884Z,7.39
2023-02-02T19:44:33.860Z,7.06
2023-02-02T19:49:33.925Z,7.17
2023-02-02T19:54:33.895Z,7.57
2023-02-02T19:59:33.862Z,6.51
2023-02-02T20:04:33.860Z,6.09
2023-02-02T20:09:33.913Z,6.31
2023-02-02T20:14:33.862Z,6.3
2023-02-02T20:19:33.902Z,6.03
2023-02-02T20:24:33.910Z,5.6
2023-02-02T20:29:33.880Z,6
2023-02-02T20:34:33.880Z,5.4
2023-02-02T20:39:33.892Z,5.15
2023-02-02T20:44:33.910Z,6.91
2023-02-02T20:49:33.877Z,6.66
2023-02-02T20:54:33.885Z,6.47
2023-02-02T20:59:33.886Z,6.26
2023-02-02T21:04:33.880Z,6.14
2023-02-02T21:09:33.880Z,7.06
2023-02-02T21:14:33.925Z,7.73
2023-02-02T21:19:33.887Z,6.72
2023-02-02T21:24:33.886Z,6.47
2023-02-02T21:29:33.931Z,6.53
2023-02-02T21:34:33.909Z,6.11
2023-02-02T21:39:33.892Z,5.96
2023-02-02T21:44:33.914Z,6.22
2023-02-02T21:54:33.944Z,6.28
2023-02-02T21:59:33.898Z,6.22
2023-02-02T22:04:33.902Z,6.48
2023-02-02T22:09:33.908Z,6.14
2023-02-02T22:14:33.909Z,5.98
2023-02-02T22:19:33.915Z,6.37
2023-02-02T22:24:33.940Z,5.7
2023-02-02T22:29:33.923Z,5.53
2023-02-02T22:34:33.939Z,5.72
2023-02-02T22:39:33.920Z,5.84
2023-02-02T22:44:33.898Z,5.95
2023-02-02T22:49:33.957Z,5.49
2023-02-02T22:54:33.954Z,5.11
2023-02-02T22:59:33.920Z,5.46
2023-02-02T23:04:33.924Z,5.4
2023-02-02T23:09:33.927Z,5.23
2023-02-02T23:14:33.965Z,5.08
2023-02-02T23:19:33.928Z,5.34
2023-02-02T23:24:33.944Z,5.3
2023-02-02T23:29:33.968Z,5.08
2023-02-02T23:34:33.976Z,4.85
2023-02-02T23:39:33.968Z,4.74
2023-02-02T23:44:33.953Z,4.83
2023-02-02T23:49:33.942Z,4.59
2023-02-02T23:54:34.013Z,4.44
2023-02-02T23:59:33.955Z,4.35
